Time;durP1;ratioP1;P1;durP2;ratioP2;P2;SDS_P1;SDS_P2;PMS_P1;PMS_P2;Temp;Humidity;BMP_temperature;BMP_pressure;BME280_temperature;BME280_humidity;BME280_pressure;Samples;Min_cycle;Max_cycle;Signal;HPM_P1;HPM_P2
2021/12/05 00:18:41;;;;;;;1999.90;999.90;;;5.60;99.90;;;;;;5021711;28;20176;-68
2021/12/05 00:24:14;;;;;;;1999.90;999.90;;;5.60;99.90;;;;;;5019458;28;20427;-69
2021/12/05 00:26:42;;;;;;;1999.90;999.90;;;5.50;99.90;;;;;;5019602;28;20228;-69
2021/12/05 00:34:30;;;;;;;1999.90;999.90;;;5.40;99.90;;;;;;5018494;28;20450;-68
2021/12/05 01:16:18;;;;;;;1999.90;999.90;;;5.30;99.90;;;;;;5022652;28;20460;-69
2021/12/05 01:18:45;;;;;;;1999.90;999.90;;;5.20;99.90;;;;;;5015555;28;20165;-69
2021/12/05 01:21:14;;;;;;;1999.90;999.90;;;5.20;99.90;;;;;;5014140;28;20444;-69
2021/12/05 01:29:00;;;;;;;1999.90;999.90;;;5.20;99.90;;;;;;5013944;28;20443;-69
2021/12/05 01:34:11;;;;;;;1999.90;999.90;;;5.30;99.90;;;;;;5013572;28;20432;-69
2021/12/05 01:53:54;;;;;;;1999.90;999.90;;;5.30;99.90;;;;;;5017003;28;20197;-69
2021/12/05 01:59:07;;;;;;;1999.90;999.90;;;5.30;99.90;;;;;;5017133;28;20536;-69
2021/12/05 02:12:23;;;;;;;1999.90;999.90;;;5.30;99.90;;;;;;5016793;28;21035;-70
2021/12/05 02:15:58;;;;;;;1999.90;999.90;;;5.30;99.90;;;;;;5016676;28;20223;-69
2021/12/05 02:39:36;;;;;;;1999.90;999.90;;;5.30;99.90;;;;;;5018038;28;20522;-68
2021/12/05 02:42:11;;;;;;;1999.90;999.90;;;5.30;99.90;;;;;;5017030;28;20579;-69
2021/12/05 02:44:39;;;;;;;1999.90;999.90;;;5.30;99.90;;;;;;5016557;28;20243;-69
2021/12/05 02:47:09;;;;;;;1999.90;999.90;;;5.30;99.90;;;;;;5018121;28;20219;-69
2021/12/05 02:49:38;;;;;;;1999.90;999.90;;;5.30;99.90;;;;;;5017318;28;20172;-70
2021/12/05 02:52:09;;;;;;;1999.90;999.90;;;5.20;99.90;;;;;;5017272;28;20539;-68
2021/12/05 02:54:43;;;;;;;1999.90;999.90;;;5.20;99.90;;;;;;5015584;28;20165;-68
2021/12/05 02:57:11;;;;;;;1999.90;999.90;;;5.20;99.90;;;;;;5015341;28;20424;-68
2021/12/05 03:02:11;;;;;;;1999.90;999.90;;;5.20;99.90;;;;;;5015259;28;20492;-68
2021/12/05 03:04:40;;;;;;;1999.90;999.90;;;5.20;99.90;;;;;;5014868;28;20193;-69
2021/12/05 03:07:08;;;;;;;1999.90;999.90;;;5.20;99.90;;;;;;5016029;28;20248;-68
2021/12/05 03:09:35;;;;;;;1999.90;999.90;;;5.20;99.90;;;;;;5015304;28;20758;-69
2021/12/05 03:12:01;;;;;;;1999.90;999.90;;;5.30;99.90;;;;;;5015971;28;20197;-68
2021/12/05 03:14:27;;;;;;;1999.90;999.90;;;5.30;99.90;;;;;;5016302;28;20161;-68
2021/12/05 03:16:53;;;;;;;1999.90;999.90;;;5.30;99.90;;;;;;5016740;28;20197;-68
2021/12/05 03:19:19;;;;;;;1999.90;999.90;;;5.30;99.90;;;;;;5015798;28;20199;-69
2021/12/05 03:21:48;;;;;;;1999.90;999.90;;;5.20;99.90;;;;;;5015137;28;20412;-68
2021/12/05 03:24:16;;;;;;;1999.90;999.90;;;5.30;99.90;;;;;;5014791;28;20415;-68
2021/12/05 03:26:44;;;;;;;1999.90;999.90;;;5.30;99.90;;;;;;5014806;28;20514;-68
2021/12/05 03:29:12;;;;;;;1999.90;999.90;;;5.20;99.90;;;;;;5014513;28;20514;-68
2021/12/05 03:31:38;;;;;;;1999.90;999.90;;;5.20;99.90;;;;;;5015164;28;20212;-68
2021/12/05 03:34:07;;;;;;;1999.90;999.90;;;5.20;99.90;;;;;;5014707;28;20187;-68
2021/12/05 03:36:34;;;;;;;1999.90;999.90;;;5.20;99.90;;;;;;5015382;28;20803;-68
2021/12/05 03:39:03;;;;;;;1999.90;999.90;;;5.20;99.90;;;;;;5015764;28;20173;-68
2021/12/05 03:41:29;;;;;;;1999.90;999.90;;;5.10;99.90;;;;;;5015346;28;20169;-68
2021/12/05 03:43:56;;;;;;;1999.90;999.90;;;5.10;99.90;;;;;;5017296;28;20173;-66
2021/12/05 03:46:23;;;;;;;1999.90;999.90;;;5.20;99.90;;;;;;5015729;28;20196;-68
2021/12/05 03:48:52;;;;;;;1999.90;999.90;;;5.20;99.90;;;;;;5016174;28;20165;-67
2021/12/05 03:51:22;;;;;;;1999.90;999.90;;;5.20;99.90;;;;;;5016707;28;20689;-68
2021/12/05 03:53:49;;;;;;;1999.90;999.90;;;5.20;99.90;;;;;;5018376;28;20631;-67
2021/12/05 03:56:16;;;;;;;1999.90;999.90;;;5.20;99.90;;;;;;5017483;28;20177;-68
2021/12/05 03:58:42;;;;;;;1999.90;999.90;;;5.20;99.90;;;;;;5017278;28;20562;-68
2021/12/05 04:01:10;;;;;;;1999.90;999.90;;;5.20;99.90;;;;;;5016387;28;20192;-67
2021/12/05 04:03:37;;;;;;;1999.90;999.90;;;5.20;99.90;;;;;;5018984;28;20177;-68
2021/12/05 04:06:04;;;;;;;1999.90;999.90;;;5.10;99.90;;;;;;5016211;28;20165;-68
2021/12/05 04:08:30;;;;;;;1999.90;999.90;;;5.00;99.90;;;;;;5014302;28;20165;-68
2021/12/05 04:11:23;;;;;;;1999.90;999.90;;;5.00;99.90;;;;;;5015291;28;20169;-67
2021/12/05 04:13:49;;;;;;;1999.90;999.90;;;5.00;99.90;;;;;;5015103;28;20189;-67
2021/12/05 04:16:15;;;;;;;1999.90;999.90;;;4.90;99.90;;;;;;5015626;28;20169;-68
2021/12/05 04:18:42;;;;;;;1999.90;999.90;;;4.90;99.90;;;;;;5016627;28;20435;-68
2021/12/05 04:21:07;;;;;;;1999.90;999.90;;;4.80;99.90;;;;;;5015870;28;20180;-68
2021/12/05 04:23:34;;;;;;;1999.90;999.90;;;4.90;99.90;;;;;;5016114;28;20720;-68
2021/12/05 04:26:00;;;;;;;1999.90;999.90;;;4.90;99.90;;;;;;5014099;28;20172;-68
2021/12/05 04:28:26;;;;;;;1999.90;999.90;;;4.80;99.90;;;;;;5015264;28;20169;-67
2021/12/05 04:30:52;;;;;;;1999.90;999.90;;;4.80;99.90;;;;;;5014989;28;20168;-67
2021/12/05 04:33:18;;;;;;;1999.90;999.90;;;4.80;99.90;;;;;;5014545;28;20161;-68
2021/12/05 04:35:44;;;;;;;1999.90;999.90;;;4.80;99.90;;;;;;5013932;28;20192;-68
2021/12/05 04:38:10;;;;;;;1999.90;999.90;;;4.80;99.90;;;;;;5013431;28;20268;-68
2021/12/05 04:40:35;;;;;;;1999.90;999.90;;;4.80;99.90;;;;;;5014132;28;20408;-68
2021/12/05 04:43:03;;;;;;;1999.90;999.90;;;4.70;99.90;;;;;;5014377;28;20589;-68
2021/12/05 04:45:31;;;;;;;1999.90;999.90;;;4.70;99.90;;;;;;5013367;28;20165;-67
2021/12/05 04:47:57;;;;;;;1999.90;999.90;;;4.60;99.90;;;;;;5014094;28;20299;-67
2021/12/05 04:50:24;;;;;;;1999.90;999.90;;;4.60;99.90;;;;;;5013069;28;20643;-67
2021/12/05 04:52:50;;;;;;;1999.90;999.90;;;4.60;99.90;;;;;;5012207;28;20212;-68
2021/12/05 04:55:16;;;;;;;1999.90;999.90;;;4.50;99.90;;;;;;5012187;28;20546;-68
2021/12/05 04:57:43;;;;;;;1999.90;999.90;;;4.40;99.90;;;;;;5012156;28;20424;-68
2021/12/05 05:00:17;;;;;;;1999.90;999.90;;;4.30;99.90;;;;;;5012206;28;20686;-67
2021/12/05 05:02:43;;;;;;;1999.90;999.90;;;4.20;99.90;;;;;;5012205;28;20700;-67
2021/12/05 05:05:11;;;;;;;1999.90;999.90;;;4.10;99.90;;;;;;5011886;28;20172;-67
2021/12/05 05:07:39;;;;;;;1999.90;999.90;;;4.00;99.90;;;;;;5012056;28;20189;-68
2021/12/05 05:10:10;;;;;;;1999.90;999.90;;;3.90;99.90;;;;;;5012112;28;20176;-68
2021/12/05 05:12:36;;;;;;;1999.90;999.90;;;3.80;99.90;;;;;;5012047;28;20200;-67
2021/12/05 05:15:03;;;;;;;1999.90;999.90;;;3.70;99.90;;;;;;5011756;28;20174;-67
2021/12/05 05:17:28;;;;;;;1999.90;999.90;;;3.70;99.90;;;;;;5011986;28;20416;-67
2021/12/05 05:20:03;;;;;;;1999.90;999.90;;;3.60;99.90;;;;;;5012058;28;20509;-68
2021/12/05 05:25:38;;;;;;;1999.90;999.90;;;3.70;99.90;;;;;;5014544;28;20169;-68
2021/12/05 05:44:30;;;;;;;1999.90;999.90;;;4.00;99.90;;;;;;5016340;28;20177;-68
2021/12/05 05:51:46;;;;;;;1999.90;999.90;;;4.10;99.90;;;;;;5016839;28;20667;-67
2021/12/05 05:54:13;;;;;;;1999.90;999.90;;;4.20;99.90;;;;;;5018925;28;20207;-68
2021/12/05 05:56:41;;;;;;;1999.90;999.90;;;4.20;99.90;;;;;;5018229;28;20184;-68
2021/12/05 05:59:15;;;;;;;1999.90;999.90;;;4.20;99.90;;;;;;5017681;28;20169;-67
2021/12/05 06:04:16;;;;;;;1999.90;999.90;;;4.20;99.90;;;;;;5016930;28;20172;-68
2021/12/05 06:06:42;;;;;;;1999.90;999.90;;;4.10;99.90;;;;;;5018031;28;20189;-67
2021/12/05 06:09:08;;;;;;;1999.90;999.90;;;4.10;99.90;;;;;;5018981;28;20165;-68
2021/12/05 06:11:34;;;;;;;1999.90;999.90;;;4.00;99.90;;;;;;5018934;28;20686;-68
2021/12/05 06:14:00;;;;;;;1999.90;999.90;;;4.00;99.90;;;;;;5018590;28;20507;-67
2021/12/05 06:16:26;;;;;;;1999.90;999.90;;;3.90;99.90;;;;;;5018393;28;20225;-68
2021/12/05 06:18:52;;;;;;;1999.90;999.90;;;3.80;99.90;;;;;;5018678;28;20488;-68
2021/12/05 06:21:17;;;;;;;1999.90;999.90;;;3.70;99.90;;;;;;5019163;28;20161;-68
2021/12/05 06:23:44;;;;;;;1999.90;999.90;;;3.60;99.90;;;;;;5018671;28;20169;-68
2021/12/05 06:26:13;;;;;;;1999.90;999.90;;;3.50;99.90;;;;;;5017592;28;20165;-68
2021/12/05 06:28:44;;;;;;;1999.90;999.90;;;3.50;99.90;;;;;;5017431;28;20169;-67
2021/12/05 06:31:23;;;;;;;1999.90;999.90;;;3.50;99.90;;;;;;5015779;28;20169;-68
2021/12/05 06:39:22;;;;;;;1999.90;999.90;;;3.40;99.90;;;;;;5014827;28;20170;-67
2021/12/05 06:47:10;;;;;;;1999.90;999.90;;;3.50;99.90;;;;;;5014610;28;20266;-68
2021/12/05 06:49:37;;;;;;;1999.90;999.90;;;3.50;99.90;;;;;;5014480;28;20177;-67
2021/12/05 06:52:03;;;;;;;1999.90;999.90;;;3.40;99.90;;;;;;5014328;28;20227;-67
2021/12/05 06:54:28;;;;;;;1999.90;999.90;;;3.40;99.90;;;;;;5014047;28;20172;-67
2021/12/05 06:56:54;;;;;;;1999.90;999.90;;;3.40;99.90;;;;;;5014212;28;20185;-67
2021/12/05 06:59:20;;;;;;;1999.90;999.90;;;3.40;99.90;;;;;;5014292;28;20200;-67
2021/12/05 07:01:45;;;;;;;1999.90;999.90;;;3.40;99.90;;;;;;5014234;28;20173;-67
2021/12/05 07:06:55;;;;;;;1999.90;999.90;;;3.50;99.90;;;;;;5014088;28;20584;-67
2021/12/05 07:09:22;;;;;;;1999.90;999.90;;;3.50;99.90;;;;;;5013991;28;20166;-67
2021/12/05 07:14:45;;;;;;;1999.90;999.90;;;3.60;99.90;;;;;;5013749;28;20666;-67
2021/12/05 07:19:59;;;;;;;1999.90;999.90;;;3.70;99.90;;;;;;5013824;28;20181;-67
2021/12/05 07:22:34;;;;;;;1999.90;999.90;;;3.80;99.90;;;;;;5013844;28;20197;-67
2021/12/05 07:25:08;;;;;;;1999.90;999.90;;;3.90;99.90;;;;;;5013678;28;20185;-67
2021/12/05 07:43:41;;;;;;;1999.90;999.90;;;4.30;99.90;;;;;;5013809;28;20173;-67
2021/12/05 07:46:07;;;;;;;1999.90;999.90;;;4.30;99.90;;;;;;5013083;28;20250;-66
2021/12/05 07:48:36;;;;;;;1999.90;999.90;;;4.30;99.90;;;;;;5013847;28;20180;-67
2021/12/05 07:51:13;;;;;;;1999.90;999.90;;;4.40;99.90;;;;;;5014663;28;20175;-68
2021/12/05 08:15:27;;;;;;;1999.90;999.90;;;4.70;99.90;;;;;;5014744;28;20203;-68
2021/12/05 08:17:54;;;;;;;1999.90;999.90;;;4.70;99.90;;;;;;5014536;28;20195;-68
2021/12/05 08:20:33;;;;;;;1999.90;999.90;;;4.70;99.90;;;;;;5014658;28;20535;-68
2021/12/05 08:23:00;;;;;;;1999.90;999.90;;;4.80;99.90;;;;;;5014693;28;20204;-68
2021/12/05 08:25:29;;;;;;;1999.90;999.90;;;4.80;99.90;;;;;;5014452;28;20658;-68
2021/12/05 08:28:05;;;;;;;1999.90;999.90;;;4.90;99.90;;;;;;5015147;28;20238;-68
2021/12/05 08:30:34;;;;;;;1999.90;999.90;;;5.00;99.90;;;;;;5015617;28;20435;-68
2021/12/05 08:36:13;;;;;;;1999.90;999.90;;;5.00;99.90;;;;;;5015414;28;20161;-68
2021/12/05 09:08:51;;;;;;;1999.90;999.90;;;5.00;99.90;;;;;;5015791;28;20250;-67
2021/12/05 09:25:20;;;;;;;1999.90;999.90;;;5.30;99.90;;;;;;5014845;28;20690;-68
2021/12/05 10:03:13;;;;;;;1999.90;999.90;;;5.60;99.90;;;;;;5016535;28;20658;-68
2021/12/05 10:38:33;;;;;;;1999.90;999.90;;;6.00;99.90;;;;;;5018364;28;20188;-68
2021/12/05 10:42:11;;;;;;;1999.90;999.90;;;6.00;99.90;;;;;;5017593;28;20222;-67
2021/12/05 10:43:57;;;;;;;1999.90;999.90;;;6.10;99.90;;;;;;5016531;28;20176;-67
2021/12/05 10:46:25;;;;;;;1999.90;999.90;;;6.20;99.90;;;;;;5016669;28;20448;-68
2021/12/05 10:49:00;;;;;;;1999.90;999.90;;;6.20;99.90;;;;;;5033335;23;20391;-70
2021/12/05 10:51:28;;;;;;;1999.90;999.90;;;6.30;99.90;;;;;;5014532;28;20469;-70
2021/12/05 10:54:03;;;;;;;1999.90;999.90;;;6.30;99.90;;;;;;5014797;28;20404;-70
2021/12/05 10:56:31;;;;;;;1999.90;999.90;;;6.40;99.90;;;;;;5014710;28;20771;-70
2021/12/05 10:59:10;;;;;;;1999.90;999.90;;;6.40;99.90;;;;;;5014106;28;20193;-70
2021/12/05 11:01:36;;;;;;;1999.90;999.90;;;6.50;99.90;;;;;;5014824;28;20815;-70
2021/12/05 11:04:06;;;;;;;1999.90;999.90;;;6.60;99.90;;;;;;5014240;28;20446;-70
2021/12/05 11:06:44;;;;;;;1999.90;999.90;;;6.60;99.90;;;;;;5014757;28;20223;-70
2021/12/05 11:09:20;;;;;;;1999.90;999.90;;;6.60;99.90;;;;;;5014352;28;20432;-70
2021/12/05 11:11:50;;;;;;;1999.90;999.90;;;6.70;99.90;;;;;;5014431;28;20457;-70
2021/12/05 11:14:23;;;;;;;1999.90;999.90;;;6.70;99.90;;;;;;5014033;28;20439;-70
2021/12/05 11:17:06;;;;;;;1999.90;999.90;;;6.70;99.90;;;;;;5012361;28;20416;-74
2021/12/05 11:19:40;;;;;;;1999.90;999.90;;;6.70;99.90;;;;;;5014225;28;20424;-73
2021/12/05 11:22:17;;;;;;;1999.90;999.90;;;6.60;99.90;;;;;;5013756;28;20408;-73
2021/12/05 11:24:58;;;;;;;1999.90;999.90;;;6.70;99.90;;;;;;5013517;28;20419;-73
2021/12/05 11:27:43;;;;;;;1999.90;999.90;;;6.80;99.90;;;;;;5013857;28;20768;-75
2021/12/05 11:30:18;;;;;;;1999.90;999.90;;;7.00;99.90;;;;;;5013308;28;20435;-74
2021/12/05 11:32:54;;;;;;;1999.90;999.90;;;7.20;99.90;;;;;;5013271;28;20459;-74
2021/12/05 11:35:31;;;;;;;1999.90;999.90;;;7.30;99.90;;;;;;5009448;28;20411;-73
2021/12/05 11:38:15;;;;;;;1999.90;999.90;;;7.50;99.90;;;;;;5011748;28;20406;-72
2021/12/05 11:40:43;;;;;;;1999.90;999.90;;;7.70;99.90;;;;;;5014352;28;20463;-77
2021/12/05 11:43:11;;;;;;;1999.90;999.90;;;7.80;99.90;;;;;;5014451;28;20769;-76
2021/12/05 11:45:56;;;;;;;1999.90;999.90;;;7.80;99.90;;;;;;5014601;28;20491;-76
2021/12/05 11:48:32;;;;;;;1999.90;999.90;;;8.10;99.90;;;;;;5014507;28;20402;-73
2021/12/05 11:51:00;;;;;;;1999.90;999.90;;;8.60;99.90;;;;;;5013213;28;20982;-73
2021/12/05 11:53:34;;;;;;;1999.90;999.90;;;9.10;99.90;;;;;;5013782;28;20482;-74
2021/12/05 11:56:00;;;;;;;1999.90;999.90;;;9.60;99.90;;;;;;5013231;28;20511;-73
2021/12/05 11:58:26;;;;;;;1999.90;999.90;;;10.10;99.90;;;;;;5013416;28;20444;-73
2021/12/05 12:00:51;;;;;;;1999.90;999.90;;;10.50;99.90;;;;;;5013639;28;20207;-73
2021/12/05 12:03:31;;;;;;;1999.90;999.90;;;10.90;99.90;;;;;;5013218;28;20185;-73
2021/12/05 12:05:56;;;;;;;1999.90;999.90;;;11.30;99.90;;;;;;5012329;28;20330;-73
2021/12/05 12:08:22;;;;;;;1999.90;999.90;;;11.60;99.90;;;;;;5013527;28;20982;-73
2021/12/05 12:11:00;;;;;;;1999.90;999.90;;;11.70;99.90;;;;;;5013704;28;20196;-74
2021/12/05 12:13:37;;;;;;;1999.90;999.90;;;11.90;99.90;;;;;;5013329;28;20219;-73
2021/12/05 12:16:07;;;;;;;1999.90;999.90;;;11.90;99.90;;;;;;5013146;28;20396;-73
2021/12/05 12:18:40;;;;;;;1999.90;999.90;;;12.00;99.90;;;;;;5013876;28;20908;-74
2021/12/05 12:21:08;;;;;;;1999.90;999.90;;;12.10;99.90;;;;;;5012892;28;20500;-73
2021/12/05 12:23:34;;;;;;;1999.90;999.90;;;12.40;99.90;;;;;;5013068;28;20454;-73
2021/12/05 12:26:02;;;;;;;1999.90;999.90;;;12.50;99.90;;;;;;5012474;28;21181;-74
2021/12/05 12:28:28;;;;;;;1999.90;999.90;;;12.70;99.90;;;;;;5012446;28;20192;-74
2021/12/05 12:31:02;;;;;;;1999.90;999.90;;;12.30;99.90;;;;;;5012326;28;20423;-74
2021/12/05 12:33:39;;;;;;;1999.90;999.90;;;11.60;99.90;;;;;;5011973;28;20542;-73
2021/12/05 12:36:05;;;;;;;1999.90;999.90;;;10.90;99.90;;;;;;5012391;28;20397;-73
2021/12/05 12:38:30;;;;;;;1999.90;999.90;;;10.10;99.90;;;;;;5012804;28;20396;-73
2021/12/05 12:41:24;;;;;;;1999.90;999.90;;;9.70;99.90;;;;;;5012115;28;20459;-73
2021/12/05 12:43:56;;;;;;;1999.90;999.90;;;9.30;99.90;;;;;;5010196;28;20196;-74
2021/12/05 12:46:31;;;;;;;1999.90;999.90;;;8.80;99.90;;;;;;5012277;28;20408;-73
2021/12/05 12:49:14;;;;;;;1999.90;999.90;;;8.70;99.90;;;;;;5012030;28;20445;-74
2021/12/05 12:51:46;;;;;;;1999.90;999.90;;;8.50;99.90;;;;;;5012417;28;20459;-73
2021/12/05 12:54:35;;;;;;;1999.90;999.90;;;8.40;99.90;;;;;;5012415;28;20939;-74
2021/12/05 12:57:01;;;;;;;1999.90;999.90;;;8.20;99.90;;;;;;5012631;28;20416;-74
2021/12/05 12:59:29;;;;;;;1999.90;999.90;;;8.00;99.90;;;;;;5012239;28;20454;-73
2021/12/05 13:02:27;;;;;;;1999.90;999.90;;;7.90;99.90;;;;;;5012560;28;20169;-73
2021/12/05 13:10:34;;;;;;;1999.90;999.90;;;7.70;99.90;;;;;;5012725;28;20477;-74
2021/12/05 13:13:31;;;;;;;1999.90;999.90;;;7.60;99.90;;;;;;5012326;28;21003;-74
2021/12/05 13:16:08;;;;;;;1999.90;999.90;;;7.60;99.90;;;;;;5004191;28;20498;-73
2021/12/05 13:18:36;;;;;;;1999.90;999.90;;;7.60;99.90;;;;;;5012154;28;20444;-74
2021/12/05 13:21:25;;;;;;;1999.90;999.90;;;7.60;99.90;;;;;;5012538;28;20423;-74
2021/12/05 13:23:52;;;;;;;1999.90;999.90;;;7.60;99.90;;;;;;5012188;28;20419;-74
2021/12/05 13:26:23;;;;;;;1999.90;999.90;;;7.60;99.90;;;;;;5011001;28;20408;-74
2021/12/05 13:29:11;;;;;;;1999.90;999.90;;;7.50;99.90;;;;;;5012015;28;20773;-74
2021/12/05 13:32:06;;;;;;;1999.90;999.90;;;7.40;99.90;;;;;;5012192;28;20479;-73
2021/12/05 13:34:40;;;;;;;1999.90;999.90;;;7.40;99.90;;;;;;5006962;28;20412;-73
2021/12/05 13:37:06;;;;;;;1999.90;999.90;;;7.40;99.90;;;;;;5011836;28;20392;-72
2021/12/05 13:39:37;;;;;;;1999.90;999.90;;;7.40;99.90;;;;;;5011713;28;20428;-72
2021/12/05 13:42:12;;;;;;;1999.90;999.90;;;7.60;99.90;;;;;;5011832;28;20158;-72
2021/12/05 13:44:59;;;;;;;1999.90;999.90;;;7.60;99.90;;;;;;5012272;28;20392;-72
2021/12/05 13:47:39;;;;;;;1999.90;999.90;;;7.70;99.90;;;;;;5016261;28;20403;-73
2021/12/05 13:53:03;;;;;;;1999.90;999.90;;;7.70;99.90;;;;;;5016967;28;20467;-72
2021/12/05 13:55:31;;;;;;;1999.90;999.90;;;7.60;99.90;;;;;;5015862;28;20766;-72
2021/12/05 13:58:40;;;;;;;1999.90;999.90;;;7.70;99.90;;;;;;5016584;28;20467;-72
2021/12/05 14:01:23;;;;;;;1999.90;999.90;;;7.60;99.90;;;;;;5016472;28;20404;-72
2021/12/05 14:03:49;;;;;;;1999.90;999.90;;;7.70;99.90;;;;;;5016004;28;20415;-72
2021/12/05 14:06:36;;;;;;;1999.90;999.90;;;7.80;99.90;;;;;;5015890;28;20411;-72
2021/12/05 14:09:26;;;;;;;1999.90;999.90;;;7.80;99.90;;;;;;5016150;28;20192;-72
2021/12/05 14:11:54;;;;;;;1999.90;999.90;;;7.70;99.90;;;;;;5015083;28;20487;-73
2021/12/05 14:14:27;;;;;;;1999.90;999.90;;;7.70;99.90;;;;;;4997855;28;20823;-72
2021/12/05 14:16:55;;;;;;;1999.90;999.90;;;7.70;99.90;;;;;;5015719;28;20466;-72
2021/12/05 14:19:24;;;;;;;1999.90;999.90;;;7.60;99.90;;;;;;5015219;28;20929;-72
2021/12/05 14:21:52;;;;;;;1999.90;999.90;;;7.50;99.90;;;;;;5015977;28;20403;-72
2021/12/05 14:24:22;;;;;;;1999.90;999.90;;;7.60;99.90;;;;;;5015503;28;20784;-72
2021/12/05 14:26:51;;;;;;;1999.90;999.90;;;7.60;99.90;;;;;;5015194;28;20415;-72
2021/12/05 14:29:22;;;;;;;1999.90;999.90;;;7.50;99.90;;;;;;5015782;28;20982;-72
2021/12/05 14:32:12;;;;;;;1999.90;999.90;;;7.50;99.90;;;;;;5015983;28;20953;-72
2021/12/05 14:34:39;;;;;;;1999.90;999.90;;;7.40;99.90;;;;;;5015469;28;20404;-72
2021/12/05 14:37:12;;;;;;;1999.90;999.90;;;7.40;99.90;;;;;;5015712;28;20842;-72
2021/12/05 14:39:39;;;;;;;1999.90;999.90;;;7.40;99.90;;;;;;5015226;28;20423;-72
2021/12/05 14:42:11;;;;;;;1999.90;999.90;;;7.40;99.90;;;;;;5015065;28;20487;-72
2021/12/05 14:44:38;;;;;;;1999.90;999.90;;;7.30;99.90;;;;;;5014989;28;20412;-72
2021/12/05 14:47:06;;;;;;;1999.90;999.90;;;7.40;99.90;;;;;;5014778;28;20499;-72
2021/12/05 14:49:41;;;;;;;1999.90;999.90;;;7.40;99.90;;;;;;5014201;28;20984;-72
2021/12/05 14:52:14;;;;;;;1999.90;999.90;;;7.50;99.90;;;;;;5014358;28;20491;-72
2021/12/05 14:54:41;;;;;;;1999.90;999.90;;;7.40;99.90;;;;;;5013215;28;21045;-72
2021/12/05 14:57:33;;;;;;;1999.90;999.90;;;7.30;99.90;;;;;;5013025;28;20420;-72
2021/12/05 15:00:00;;;;;;;1999.90;999.90;;;7.30;99.90;;;;;;5013509;28;20435;-72
2021/12/05 15:02:27;;;;;;;1999.90;999.90;;;6.90;99.90;;;;;;5013228;28;20489;-72
2021/12/05 15:04:53;;;;;;;1999.90;999.90;;;6.50;99.90;;;;;;5013537;28;20511;-72
2021/12/05 15:07:24;;;;;;;1999.90;999.90;;;6.20;99.90;;;;;;5013472;28;20495;-72
2021/12/05 15:09:54;;;;;;;1999.90;999.90;;;6.10;99.90;;;;;;5012856;28;20438;-72
2021/12/05 15:12:27;;;;;;;1999.90;999.90;;;6.00;99.90;;;;;;5013419;28;20447;-72
2021/12/05 15:14:56;;;;;;;1999.90;999.90;;;6.00;99.90;;;;;;5013077;28;20408;-72
2021/12/05 15:17:26;;;;;;;1999.90;999.90;;;6.10;99.90;;;;;;5012854;28;20423;-72
2021/12/05 15:20:01;;;;;;;1999.90;999.90;;;6.20;99.90;;;;;;5013098;28;20459;-72
2021/12/05 15:22:27;;;;;;;1999.90;999.90;;;6.20;99.90;;;;;;5013365;28;20450;-72
2021/12/05 15:24:59;;;;;;;1999.90;999.90;;;6.30;99.90;;;;;;5012598;28;20416;-72
2021/12/05 15:27:28;;;;;;;1999.90;999.90;;;6.30;99.90;;;;;;5012865;28;20474;-72
2021/12/05 15:30:00;;;;;;;1999.90;999.90;;;6.30;99.90;;;;;;5013143;28;20877;-72
2021/12/05 15:32:29;;;;;;;1999.90;999.90;;;6.20;99.90;;;;;;5012611;28;20550;-71
2021/12/05 15:34:58;;;;;;;1999.90;999.90;;;6.00;99.90;;;;;;5012780;28;20408;-72
2021/12/05 15:37:25;;;;;;;1999.90;999.90;;;5.90;99.90;;;;;;5012750;28;20463;-72
2021/12/05 15:39:53;;;;;;;1999.90;999.90;;;5.90;99.90;;;;;;5012261;28;20729;-72
2021/12/05 15:42:25;;;;;;;1999.90;999.90;;;6.00;99.90;;;;;;5012919;28;20415;-72
2021/12/05 15:44:53;;;;;;;1999.90;999.90;;;6.00;99.90;;;;;;5012927;28;20944;-72
2021/12/05 15:47:22;;;;;;;1999.90;999.90;;;6.10;99.90;;;;;;5011945;28;20964;-72
2021/12/05 15:50:10;;;;;;;1999.90;999.90;;;6.10;99.90;;;;;;5012710;28;21084;-73
2021/12/05 15:52:54;;;;;;;1999.90;999.90;;;6.00;99.90;;;;;;5012668;28;20435;-71
2021/12/05 15:55:35;;;;;;;1999.90;999.90;;;6.10;99.90;;;;;;5012029;28;20404;-73
2021/12/05 15:58:30;;;;;;;1999.90;999.90;;;6.10;99.90;;;;;;5012551;28;20400;-72
2021/12/05 16:01:09;;;;;;;1999.90;999.90;;;6.20;99.90;;;;;;5012253;28;20462;-72
2021/12/05 16:03:49;;;;;;;1999.90;999.90;;;6.10;99.90;;;;;;5012321;28;20980;-71
2021/12/05 16:06:18;;;;;;;1999.90;999.90;;;6.10;99.90;;;;;;5012257;28;20415;-72
2021/12/05 16:08:46;;;;;;;1999.90;999.90;;;6.10;99.90;;;;;;5011039;28;20416;-72
2021/12/05 16:11:20;;;;;;;1999.90;999.90;;;6.10;99.90;;;;;;5012131;28;20404;-72
2021/12/05 16:13:49;;;;;;;1999.90;999.90;;;6.10;99.90;;;;;;5012321;28;20498;-72
2021/12/05 16:16:16;;;;;;;1999.90;999.90;;;6.10;99.90;;;;;;5011516;28;20732;-72
2021/12/05 16:18:48;;;;;;;1999.90;999.90;;;6.20;99.90;;;;;;5012216;28;20408;-71
2021/12/05 16:21:26;;;;;;;1999.90;999.90;;;6.10;99.90;;;;;;5012202;28;20396;-73
2021/12/05 16:23:54;;;;;;;1999.90;999.90;;;6.10;99.90;;;;;;5011637;28;20376;-72
2021/12/05 16:26:23;;;;;;;1999.90;999.90;;;6.00;99.90;;;;;;5011610;28;20482;-72
2021/12/05 16:28:53;;;;;;;1999.90;999.90;;;6.00;99.90;;;;;;5012802;28;20439;-70
2021/12/05 16:31:31;;;;;;;1999.90;999.90;;;6.10;99.90;;;;;;5012215;28;20432;-70
2021/12/05 16:34:04;;;;;;;1999.90;999.90;;;6.10;99.90;;;;;;5012690;28;20516;-70
2021/12/05 16:36:35;;;;;;;1999.90;999.90;;;6.00;99.90;;;;;;5012409;28;20416;-72
2021/12/05 16:39:11;;;;;;;1999.90;999.90;;;6.10;99.90;;;;;;5011982;28;20482;-71
2021/12/05 16:41:37;;;;;;;1999.90;999.90;;;6.10;99.90;;;;;;5012727;28;20426;-70
2021/12/05 16:44:16;;;;;;;1999.90;999.90;;;6.20;99.90;;;;;;5012375;28;20400;-73
2021/12/05 16:50:24;;;;;;;1999.90;999.90;;;6.20;99.90;;;;;;5012299;28;20473;-72
2021/12/05 16:53:16;;;;;;;1999.90;999.90;;;6.30;99.90;;;;;;5010771;28;20451;-72
2021/12/05 16:55:45;;;;;;;1999.90;999.90;;;6.30;99.90;;;;;;5011905;28;20893;-72
2021/12/05 16:58:18;;;;;;;1999.90;999.90;;;6.30;99.90;;;;;;5012430;28;20781;-71
2021/12/05 17:00:52;;;;;;;1999.90;999.90;;;6.40;99.90;;;;;;5011901;28;20431;-71
2021/12/05 17:03:23;;;;;;;1999.90;999.90;;;6.30;99.90;;;;;;5012414;28;20471;-72
2021/12/05 17:05:50;;;;;;;1999.90;999.90;;;6.30;99.90;;;;;;5012189;28;20912;-72
2021/12/05 17:08:22;;;;;;;1999.90;999.90;;;6.30;99.90;;;;;;5012013;28;20912;-72
2021/12/05 17:10:55;;;;;;;1999.90;999.90;;;6.30;99.90;;;;;;5101368;23;21003;-72
2021/12/05 17:19:50;;;;;;;1999.90;999.90;;;6.10;99.90;;;;;;4867268;29;20442;-72
2021/12/05 17:23:18;;;;;;;;;;;;;;;;;;;;;
2021/12/05 17:25:47;;;;;;;1999.90;999.90;;;6.00;99.90;;;;;;4928273;29;20187;-72
2021/12/05 17:28:35;;;;;;;1999.90;999.90;;;6.00;99.90;;;;;;4997237;28;20422;-71
2021/12/05 17:31:03;;;;;;;1999.90;999.90;;;6.00;99.90;;;;;;5015337;28;20432;-71
2021/12/05 17:33:41;;;;;;;1999.90;999.90;;;6.10;99.90;;;;;;5015753;28;20812;-73
2021/12/05 17:36:21;;;;;;;1999.90;999.90;;;6.20;99.90;;;;;;5015480;28;20465;-73
2021/12/05 17:38:49;;;;;;;1999.90;999.90;;;6.20;99.90;;;;;;5015177;28;20401;-73
2021/12/05 17:41:16;;;;;;;1999.90;999.90;;;6.20;99.90;;;;;;5015619;28;20439;-74
2021/12/05 17:43:42;;;;;;;1999.90;999.90;;;6.20;99.90;;;;;;5015855;28;20760;-74
2021/12/05 17:46:08;;;;;;;1999.90;999.90;;;6.20;99.90;;;;;;5014771;28;20491;-71
2021/12/05 17:48:34;;;;;;;1999.90;999.90;;;6.20;99.90;;;;;;5015452;28;20821;-72
2021/12/05 17:51:04;;;;;;;1999.90;999.90;;;6.20;99.90;;;;;;5014158;28;20208;-71
2021/12/05 17:53:32;;;;;;;1999.90;999.90;;;6.20;99.90;;;;;;5013669;28;20469;-71
2021/12/05 17:56:03;;;;;;;1999.90;999.90;;;6.30;99.90;;;;;;5013858;28;20422;-70
2021/12/05 18:03:57;;;;;;;1999.90;999.90;;;6.20;99.90;;;;;;5015985;28;20465;-70
2021/12/05 18:06:24;;;;;;;1999.90;999.90;;;6.30;99.90;;;;;;5015104;28;20407;-70
2021/12/05 18:08:50;;;;;;;1999.90;999.90;;;6.30;99.90;;;;;;5014697;28;20411;-71
2021/12/05 18:11:40;;;;;;;1999.90;999.90;;;6.30;99.90;;;;;;5015334;28;20840;-71
2021/12/05 18:14:09;;;;;;;1999.90;999.90;;;6.30;99.90;;;;;;5015081;28;20392;-71
2021/12/05 18:16:54;;;;;;;1999.90;999.90;;;6.20;99.90;;;;;;5012742;28;20534;-71
2021/12/05 18:19:24;;;;;;;1999.90;999.90;;;6.20;99.90;;;;;;5013185;28;20523;-71
2021/12/05 18:21:50;;;;;;;1999.90;999.90;;;6.30;99.90;;;;;;5014787;28;20400;-72